sensor_id;sensor_type;location;lat;lon;timestamp;P1;durP1;ratioP1;P2;durP2;ratioP2
58238;SDS011;44037;55.638;37.356;2023-04-24T00:01:53;17.17;;;8.38;;
58238;SDS011;44037;55.638;37.356;2023-04-24T00:04:20;19.80;;;8.40;;
58238;SDS011;44037;55.638;37.356;2023-04-24T00:06:51;15.40;;;8.52;;
58238;SDS011;44037;55.638;37.356;2023-04-24T00:09:19;20.67;;;9.05;;
58238;SDS011;44037;55.638;37.356;2023-04-24T00:11:46;12.50;;;7.57;;
58238;SDS011;44037;55.638;37.356;2023-04-24T00:14:14;16.10;;;9.70;;
58238;SDS011;44037;55.638;37.356;2023-04-24T00:16:41;17.50;;;8.40;;
58238;SDS011;44037;55.638;37.356;2023-04-24T00:19:09;15.05;;;7.93;;
58238;SDS011;44037;55.638;37.356;2023-04-24T00:21:38;13.82;;;8.88;;
58238;SDS011;44037;55.638;37.356;2023-04-24T00:24:05;15.13;;;8.80;;
58238;SDS011;44037;55.638;37.356;2023-04-24T00:26:34;14.48;;;8.70;;
58238;SDS011;44037;55.638;37.356;2023-04-24T00:29:01;15.02;;;8.45;;
58238;SDS011;44037;55.638;37.356;2023-04-24T00:31:28;12.35;;;8.15;;
58238;SDS011;44037;55.638;37.356;2023-04-24T00:33:55;14.90;;;8.25;;
58238;SDS011;44037;55.638;37.356;2023-04-24T00:36:24;15.23;;;8.13;;
58238;SDS011;44037;55.638;37.356;2023-04-24T00:38:52;15.80;;;8.40;;
58238;SDS011;44037;55.638;37.356;2023-04-24T00:41:19;17.95;;;8.43;;
58238;SDS011;44037;55.638;37.356;2023-04-24T00:43:47;21.15;;;7.65;;
58238;SDS011;44037;55.638;37.356;2023-04-24T00:46:14;17.05;;;8.77;;
58238;SDS011;44037;55.638;37.356;2023-04-24T00:48:43;11.35;;;8.05;;
58238;SDS011;44037;55.638;37.356;2023-04-24T00:51:10;14.55;;;8.18;;
58238;SDS011;44037;55.638;37.356;2023-04-24T00:53:39;13.50;;;8.75;;
58238;SDS011;44037;55.638;37.356;2023-04-24T00:56:06;16.70;;;8.25;;
58238;SDS011;44037;55.638;37.356;2023-04-24T00:58:33;17.60;;;9.00;;
58238;SDS011;44037;55.638;37.356;2023-04-24T01:01:01;14.80;;;8.10;;
58238;SDS011;44037;55.638;37.356;2023-04-24T01:03:32;13.27;;;7.82;;
58238;SDS011;44037;55.638;37.356;2023-04-24T01:06:02;16.02;;;9.52;;
58238;SDS011;44037;55.638;37.356;2023-04-24T01:08:30;14.57;;;8.18;;
58238;SDS011;44037;55.638;37.356;2023-04-24T01:11:00;14.77;;;8.45;;
58238;SDS011;44037;55.638;37.356;2023-04-24T01:13:30;11.70;;;7.82;;
58238;SDS011;44037;55.638;37.356;2023-04-24T01:15:58;17.92;;;8.95;;
58238;SDS011;44037;55.638;37.356;2023-04-24T01:18:26;10.13;;;7.57;;
58238;SDS011;44037;55.638;37.356;2023-04-24T01:20:55;12.30;;;7.60;;
58238;SDS011;44037;55.638;37.356;2023-04-24T01:23:26;11.85;;;7.93;;
58238;SDS011;44037;55.638;37.356;2023-04-24T01:25:53;13.30;;;8.70;;
58238;SDS011;44037;55.638;37.356;2023-04-24T01:28:21;17.08;;;9.13;;
58238;SDS011;44037;55.638;37.356;2023-04-24T01:30:48;16.13;;;8.52;;
58238;SDS011;44037;55.638;37.356;2023-04-24T01:33:16;14.60;;;8.32;;
58238;SDS011;44037;55.638;37.356;2023-04-24T01:35:44;15.07;;;9.23;;
58238;SDS011;44037;55.638;37.356;2023-04-24T01:38:11;17.38;;;9.80;;
58238;SDS011;44037;55.638;37.356;2023-04-24T01:40:40;12.98;;;9.10;;
58238;SDS011;44037;55.638;37.356;2023-04-24T01:43:07;15.30;;;8.63;;
58238;SDS011;44037;55.638;37.356;2023-04-24T01:45:35;13.25;;;7.68;;
58238;SDS011;44037;55.638;37.356;2023-04-24T01:48:02;14.90;;;8.57;;
58238;SDS011;44037;55.638;37.356;2023-04-24T01:50:29;14.70;;;8.75;;
58238;SDS011;44037;55.638;37.356;2023-04-24T01:52:57;15.43;;;8.55;;
58238;SDS011;44037;55.638;37.356;2023-04-24T01:55:24;14.75;;;8.35;;
58238;SDS011;44037;55.638;37.356;2023-04-24T01:57:53;20.75;;;11.40;;
58238;SDS011;44037;55.638;37.356;2023-04-24T02:00:22;28.70;;;15.88;;
58238;SDS011;44037;55.638;37.356;2023-04-24T02:02:50;16.42;;;9.73;;
58238;SDS011;44037;55.638;37.356;2023-04-24T02:05:17;9.95;;;8.02;;
58238;SDS011;44037;55.638;37.356;2023-04-24T02:07:45;17.77;;;8.90;;
58238;SDS011;44037;55.638;37.356;2023-04-24T02:10:12;14.07;;;8.43;;
58238;SDS011;44037;55.638;37.356;2023-04-24T02:12:39;15.27;;;8.50;;
58238;SDS011;44037;55.638;37.356;2023-04-24T02:15:08;15.48;;;9.25;;
58238;SDS011;44037;55.638;37.356;2023-04-24T02:17:37;18.35;;;9.80;;
58238;SDS011;44037;55.638;37.356;2023-04-24T02:20:05;13.48;;;9.15;;
58238;SDS011;44037;55.638;37.356;2023-04-24T02:22:33;15.40;;;10.32;;
58238;SDS011;44037;55.638;37.356;2023-04-24T02:25:01;19.08;;;9.50;;
58238;SDS011;44037;55.638;37.356;2023-04-24T02:27:33;13.90;;;9.45;;
58238;SDS011;44037;55.638;37.356;2023-04-24T02:30:00;16.35;;;8.90;;
58238;SDS011;44037;55.638;37.356;2023-04-24T02:32:33;16.83;;;9.55;;
58238;SDS011;44037;55.638;37.356;2023-04-24T02:35:01;13.82;;;9.00;;
58238;SDS011;44037;55.638;37.356;2023-04-24T02:37:29;16.02;;;8.93;;
58238;SDS011;44037;55.638;37.356;2023-04-24T02:39:56;16.02;;;9.52;;
58238;SDS011;44037;55.638;37.356;2023-04-24T02:42:23;14.07;;;8.88;;
58238;SDS011;44037;55.638;37.356;2023-04-24T02:44:51;15.07;;;9.70;;
58238;SDS011;44037;55.638;37.356;2023-04-24T02:47:18;12.27;;;8.70;;
58238;SDS011;44037;55.638;37.356;2023-04-24T02:49:46;15.25;;;9.80;;
58238;SDS011;44037;55.638;37.356;2023-04-24T02:52:13;14.10;;;9.75;;
58238;SDS011;44037;55.638;37.356;2023-04-24T02:54:42;13.15;;;9.27;;
58238;SDS011;44037;55.638;37.356;2023-04-24T02:57:09;12.95;;;9.48;;
58238;SDS011;44037;55.638;37.356;2023-04-24T02:59:36;14.48;;;10.07;;
58238;SDS011;44037;55.638;37.356;2023-04-24T03:02:03;14.32;;;9.38;;
58238;SDS011;44037;55.638;37.356;2023-04-24T03:04:30;14.00;;;9.07;;
58238;SDS011;44037;55.638;37.356;2023-04-24T03:06:59;20.70;;;10.57;;
58238;SDS011;44037;55.638;37.356;2023-04-24T03:09:26;18.08;;;9.82;;
58238;SDS011;44037;55.638;37.356;2023-04-24T03:11:54;15.45;;;10.50;;
58238;SDS011;44037;55.638;37.356;2023-04-24T03:14:21;16.40;;;9.43;;
58238;SDS011;44037;55.638;37.356;2023-04-24T03:16:49;18.30;;;9.40;;
58238;SDS011;44037;55.638;37.356;2023-04-24T03:19:16;14.77;;;9.73;;
58238;SDS011;44037;55.638;37.356;2023-04-24T03:21:43;22.77;;;10.45;;
58238;SDS011;44037;55.638;37.356;2023-04-24T03:24:12;16.08;;;9.65;;
58238;SDS011;44037;55.638;37.356;2023-04-24T03:26:39;17.50;;;9.65;;
58238;SDS011;44037;55.638;37.356;2023-04-24T03:29:06;16.13;;;9.52;;
58238;SDS011;44037;55.638;37.356;2023-04-24T03:31:34;13.25;;;9.30;;
58238;SDS011;44037;55.638;37.356;2023-04-24T03:34:01;15.15;;;10.40;;
58238;SDS011;44037;55.638;37.356;2023-04-24T03:36:28;15.38;;;10.15;;
58238;SDS011;44037;55.638;37.356;2023-04-24T03:38:55;13.85;;;9.18;;
58238;SDS011;44037;55.638;37.356;2023-04-24T03:41:24;15.95;;;9.95;;
58238;SDS011;44037;55.638;37.356;2023-04-24T03:43:51;16.48;;;10.25;;
58238;SDS011;44037;55.638;37.356;2023-04-24T03:46:18;15.05;;;9.73;;
58238;SDS011;44037;55.638;37.356;2023-04-24T03:48:45;15.82;;;9.73;;
58238;SDS011;44037;55.638;37.356;2023-04-24T03:51:13;15.73;;;9.52;;
58238;SDS011;44037;55.638;37.356;2023-04-24T03:53:40;12.88;;;10.20;;
58238;SDS011;44037;55.638;37.356;2023-04-24T03:56:07;18.30;;;9.50;;
58238;SDS011;44037;55.638;37.356;2023-04-24T03:58:36;15.82;;;10.95;;
58238;SDS011;44037;55.638;37.356;2023-04-24T04:01:03;13.63;;;9.40;;
58238;SDS011;44037;55.638;37.356;2023-04-24T04:03:30;14.57;;;9.48;;
58238;SDS011;44037;55.638;37.356;2023-04-24T04:05:58;16.02;;;10.27;;
58238;SDS011;44037;55.638;37.356;2023-04-24T04:08:25;14.27;;;9.82;;
58238;SDS011;44037;55.638;37.356;2023-04-24T04:10:52;16.20;;;9.82;;
58238;SDS011;44037;55.638;37.356;2023-04-24T04:13:20;14.85;;;10.15;;
58238;SDS011;44037;55.638;37.356;2023-04-24T04:15:48;13.93;;;9.73;;
58238;SDS011;44037;55.638;37.356;2023-04-24T04:18:16;16.63;;;9.75;;
58238;SDS011;44037;55.638;37.356;2023-04-24T04:20:43;14.63;;;9.00;;
58238;SDS011;44037;55.638;37.356;2023-04-24T04:23:10;16.63;;;9.43;;
58238;SDS011;44037;55.638;37.356;2023-04-24T04:25:37;13.65;;;8.60;;
58238;SDS011;44037;55.638;37.356;2023-04-24T04:28:04;19.83;;;11.57;;
58238;SDS011;44037;55.638;37.356;2023-04-24T04:30:32;15.05;;;9.85;;
58238;SDS011;44037;55.638;37.356;2023-04-24T04:33:00;14.90;;;9.57;;
58238;SDS011;44037;55.638;37.356;2023-04-24T04:35:27;16.70;;;9.77;;
58238;SDS011;44037;55.638;37.356;2023-04-24T04:37:54;14.10;;;9.70;;
58238;SDS011;44037;55.638;37.356;2023-04-24T04:40:24;23.42;;;10.30;;
58238;SDS011;44037;55.638;37.356;2023-04-24T04:42:52;19.40;;;11.27;;
58238;SDS011;44037;55.638;37.356;2023-04-24T04:45:19;23.52;;;11.02;;
58238;SDS011;44037;55.638;37.356;2023-04-24T04:47:47;20.60;;;10.00;;
58238;SDS011;44037;55.638;37.356;2023-04-24T04:50:15;16.63;;;9.50;;
58238;SDS011;44037;55.638;37.356;2023-04-24T04:52:44;14.02;;;9.43;;
58238;SDS011;44037;55.638;37.356;2023-04-24T04:55:11;15.93;;;9.95;;
58238;SDS011;44037;55.638;37.356;2023-04-24T04:57:40;14.88;;;10.10;;
58238;SDS011;44037;55.638;37.356;2023-04-24T05:00:07;13.93;;;9.43;;
58238;SDS011;44037;55.638;37.356;2023-04-24T05:02:37;16.73;;;10.07;;
58238;SDS011;44037;55.638;37.356;2023-04-24T05:05:04;21.23;;;10.10;;
58238;SDS011;44037;55.638;37.356;2023-04-24T05:07:34;17.27;;;10.50;;
58238;SDS011;44037;55.638;37.356;2023-04-24T05:10:01;12.18;;;9.23;;
58238;SDS011;44037;55.638;37.356;2023-04-24T05:12:29;15.52;;;9.77;;
58238;SDS011;44037;55.638;37.356;2023-04-24T05:14:57;16.88;;;10.55;;
58238;SDS011;44037;55.638;37.356;2023-04-24T05:17:24;13.43;;;9.82;;
58238;SDS011;44037;55.638;37.356;2023-04-24T05:19:51;12.85;;;9.73;;
58238;SDS011;44037;55.638;37.356;2023-04-24T05:22:18;12.40;;;8.18;;
58238;SDS011;44037;55.638;37.356;2023-04-24T05:24:47;17.50;;;9.75;;
58238;SDS011;44037;55.638;37.356;2023-04-24T05:27:14;15.48;;;9.30;;
58238;SDS011;44037;55.638;37.356;2023-04-24T05:29:42;14.50;;;9.30;;
58238;SDS011;44037;55.638;37.356;2023-04-24T05:32:09;13.95;;;8.35;;
58238;SDS011;44037;55.638;37.356;2023-04-24T05:34:36;13.40;;;8.82;;
58238;SDS011;44037;55.638;37.356;2023-04-24T05:37:03;11.77;;;8.30;;
58238;SDS011;44037;55.638;37.356;2023-04-24T05:39:33;11.77;;;8.43;;
58238;SDS011;44037;55.638;37.356;2023-04-24T05:42:02;13.02;;;8.32;;
58238;SDS011;44037;55.638;37.356;2023-04-24T05:44:30;11.32;;;7.53;;
58238;SDS011;44037;55.638;37.356;2023-04-24T05:46:57;12.73;;;7.18;;
58238;SDS011;44037;55.638;37.356;2023-04-24T05:49:24;12.23;;;8.05;;
58238;SDS011;44037;55.638;37.356;2023-04-24T05:51:51;13.63;;;8.35;;
58238;SDS011;44037;55.638;37.356;2023-04-24T05:54:18;14.55;;;7.97;;
58238;SDS011;44037;55.638;37.356;2023-04-24T05:56:46;13.40;;;8.18;;
58238;SDS011;44037;55.638;37.356;2023-04-24T05:59:14;15.95;;;7.85;;
58238;SDS011;44037;55.638;37.356;2023-04-24T06:01:41;12.95;;;7.82;;
58238;SDS011;44037;55.638;37.356;2023-04-24T06:04:09;11.25;;;7.65;;
58238;SDS011;44037;55.638;37.356;2023-04-24T06:06:38;9.63;;;7.53;;
58238;SDS011;44037;55.638;37.356;2023-04-24T06:09:05;10.65;;;7.85;;
58238;SDS011;44037;55.638;37.356;2023-04-24T06:11:33;10.85;;;7.82;;
58238;SDS011;44037;55.638;37.356;2023-04-24T06:14:00;12.13;;;7.97;;
58238;SDS011;44037;55.638;37.356;2023-04-24T06:16:29;11.57;;;7.93;;
58238;SDS011;44037;55.638;37.356;2023-04-24T06:18:57;13.45;;;7.95;;
58238;SDS011;44037;55.638;37.356;2023-04-24T06:21:24;13.25;;;7.65;;
58238;SDS011;44037;55.638;37.356;2023-04-24T06:23:53;15.02;;;8.18;;
58238;SDS011;44037;55.638;37.356;2023-04-24T06:26:21;14.68;;;8.10;;
58238;SDS011;44037;55.638;37.356;2023-04-24T06:28:50;9.25;;;7.03;;
58238;SDS011;44037;55.638;37.356;2023-04-24T06:31:19;10.68;;;7.70;;
58238;SDS011;44037;55.638;37.356;2023-04-24T06:33:47;12.90;;;7.70;;
58238;SDS011;44037;55.638;37.356;2023-04-24T06:36:15;11.63;;;7.97;;
58238;SDS011;44037;55.638;37.356;2023-04-24T06:38:43;11.30;;;7.13;;
58238;SDS011;44037;55.638;37.356;2023-04-24T06:41:10;12.65;;;7.97;;
58238;SDS011;44037;55.638;37.356;2023-04-24T06:43:38;14.15;;;7.72;;
58238;SDS011;44037;55.638;37.356;2023-04-24T06:46:05;13.05;;;7.75;;
58238;SDS011;44037;55.638;37.356;2023-04-24T06:48:32;11.43;;;7.22;;
58238;SDS011;44037;55.638;37.356;2023-04-24T06:51:01;12.23;;;7.75;;
58238;SDS011;44037;55.638;37.356;2023-04-24T06:53:28;12.63;;;7.55;;
58238;SDS011;44037;55.638;37.356;2023-04-24T06:55:55;12.02;;;7.00;;
58238;SDS011;44037;55.638;37.356;2023-04-24T06:58:23;10.32;;;7.20;;
58238;SDS011;44037;55.638;37.356;2023-04-24T07:00:51;11.10;;;7.28;;
58238;SDS011;44037;55.638;37.356;2023-04-24T07:03:18;15.27;;;7.60;;
58238;SDS011;44037;55.638;37.356;2023-04-24T07:05:45;11.73;;;6.13;;
58238;SDS011;44037;55.638;37.356;2023-04-24T07:08:14;12.45;;;7.85;;
58238;SDS011;44037;55.638;37.356;2023-04-24T07:10:42;33.03;;;21.10;;
58238;SDS011;44037;55.638;37.356;2023-04-24T07:13:10;12.95;;;7.40;;
58238;SDS011;44037;55.638;37.356;2023-04-24T07:15:37;21.23;;;12.38;;
58238;SDS011;44037;55.638;37.356;2023-04-24T07:18:06;11.60;;;6.68;;
58238;SDS011;44037;55.638;37.356;2023-04-24T07:20:33;12.27;;;6.28;;
58238;SDS011;44037;55.638;37.356;2023-04-24T07:23:01;8.32;;;5.35;;
58238;SDS011;44037;55.638;37.356;2023-04-24T07:25:30;10.13;;;5.57;;
58238;SDS011;44037;55.638;37.356;2023-04-24T07:27:57;8.82;;;5.93;;
58238;SDS011;44037;55.638;37.356;2023-04-24T07:30:25;9.20;;;5.85;;
58238;SDS011;44037;55.638;37.356;2023-04-24T07:32:54;8.95;;;6.22;;
58238;SDS011;44037;55.638;37.356;2023-04-24T07:35:21;10.18;;;6.38;;
58238;SDS011;44037;55.638;37.356;2023-04-24T07:37:51;8.55;;;5.80;;
58238;SDS011;44037;55.638;37.356;2023-04-24T07:40:22;10.27;;;6.90;;
58238;SDS011;44037;55.638;37.356;2023-04-24T07:42:51;7.90;;;5.90;;
58238;SDS011;44037;55.638;37.356;2023-04-24T07:45:18;8.20;;;5.85;;
58238;SDS011;44037;55.638;37.356;2023-04-24T07:47:45;13.02;;;5.40;;
58238;SDS011;44037;55.638;37.356;2023-04-24T07:50:13;7.30;;;5.45;;
58238;SDS011;44037;55.638;37.356;2023-04-24T07:52:40;8.23;;;4.93;;
58238;SDS011;44037;55.638;37.356;2023-04-24T07:55:07;7.32;;;5.30;;
58238;SDS011;44037;55.638;37.356;2023-04-24T07:57:34;6.55;;;4.97;;
58238;SDS011;44037;55.638;37.356;2023-04-24T08:00:04;10.07;;;5.18;;
58238;SDS011;44037;55.638;37.356;2023-04-24T08:02:32;7.28;;;5.15;;
58238;SDS011;44037;55.638;37.356;2023-04-24T08:04:59;6.00;;;4.88;;
58238;SDS011;44037;55.638;37.356;2023-04-24T08:07:29;7.05;;;5.53;;
58238;SDS011;44037;55.638;37.356;2023-04-24T08:09:56;6.47;;;5.05;;
58238;SDS011;44037;55.638;37.356;2023-04-24T08:12:24;6.65;;;5.22;;
58238;SDS011;44037;55.638;37.356;2023-04-24T08:14:52;5.93;;;5.05;;
58238;SDS011;44037;55.638;37.356;2023-04-24T08:17:20;6.75;;;4.88;;
58238;SDS011;44037;55.638;37.356;2023-04-24T08:19:48;6.82;;;4.65;;
58238;SDS011;44037;55.638;37.356;2023-04-24T08:22:16;10.50;;;6.53;;
58238;SDS011;44037;55.638;37.356;2023-04-24T08:24:43;9.20;;;5.50;;
58238;SDS011;44037;55.638;37.356;2023-04-24T08:27:10;5.90;;;5.07;;
58238;SDS011;44037;55.638;37.356;2023-04-24T08:29:38;9.98;;;5.38;;
58238;SDS011;44037;55.638;37.356;2023-04-24T08:32:05;7.10;;;4.68;;
58238;SDS011;44037;55.638;37.356;2023-04-24T08:34:33;6.95;;;5.10;;
58238;SDS011;44037;55.638;37.356;2023-04-24T08:37:00;9.75;;;6.45;;
58238;SDS011;44037;55.638;37.356;2023-04-24T08:39:28;7.60;;;4.85;;
58238;SDS011;44037;55.638;37.356;2023-04-24T08:41:56;8.35;;;5.30;;
58238;SDS011;44037;55.638;37.356;2023-04-24T08:44:23;7.32;;;4.63;;
58238;SDS011;44037;55.638;37.356;2023-04-24T08:46:50;7.65;;;5.30;;
58238;SDS011;44037;55.638;37.356;2023-04-24T08:49:19;4.50;;;4.10;;
58238;SDS011;44037;55.638;37.356;2023-04-24T08:51:48;8.50;;;5.07;;
58238;SDS011;44037;55.638;37.356;2023-04-24T08:54:16;7.93;;;4.75;;
58238;SDS011;44037;55.638;37.356;2023-04-24T08:56:45;5.93;;;4.35;;
58238;SDS011;44037;55.638;37.356;2023-04-24T08:59:15;7.55;;;5.75;;
58238;SDS011;44037;55.638;37.356;2023-04-24T09:01:42;6.03;;;4.88;;
58238;SDS011;44037;55.638;37.356;2023-04-24T09:04:11;6.50;;;4.90;;
58238;SDS011;44037;55.638;37.356;2023-04-24T09:06:41;6.20;;;4.60;;
58238;SDS011;44037;55.638;37.356;2023-04-24T09:09:10;6.97;;;4.68;;
58238;SDS011;44037;55.638;37.356;2023-04-24T09:11:38;7.45;;;4.47;;
58238;SDS011;44037;55.638;37.356;2023-04-24T09:14:05;5.43;;;4.22;;
58238;SDS011;44037;55.638;37.356;2023-04-24T09:16:34;6.75;;;5.00;;
58238;SDS011;44037;55.638;37.356;2023-04-24T09:19:02;6.53;;;3.50;;
58238;SDS011;44037;55.638;37.356;2023-04-24T09:21:31;6.05;;;4.50;;
58238;SDS011;44037;55.638;37.356;2023-04-24T09:23:59;5.63;;;4.22;;
58238;SDS011;44037;55.638;37.356;2023-04-24T09:26:30;7.18;;;4.60;;
58238;SDS011;44037;55.638;37.356;2023-04-24T09:28:58;6.50;;;4.90;;
58238;SDS011;44037;55.638;37.356;2023-04-24T09:31:26;7.93;;;6.32;;
58238;SDS011;44037;55.638;37.356;2023-04-24T09:33:55;8.63;;;4.57;;
58238;SDS011;44037;55.638;37.356;2023-04-24T09:36:27;5.35;;;3.88;;
58238;SDS011;44037;55.638;37.356;2023-04-24T09:38:57;5.65;;;4.07;;
58238;SDS011;44037;55.638;37.356;2023-04-24T09:41:25;6.57;;;4.18;;
58238;SDS011;44037;55.638;37.356;2023-04-24T09:43:54;6.78;;;4.30;;
58238;SDS011;44037;55.638;37.356;2023-04-24T09:46:29;5.40;;;3.95;;
58238;SDS011;44037;55.638;37.356;2023-04-24T09:49:02;6.57;;;4.10;;
58238;SDS011;44037;55.638;37.356;2023-04-24T09:51:36;6.07;;;4.30;;
58238;SDS011;44037;55.638;37.356;2023-04-24T09:54:10;9.52;;;4.22;;
58238;SDS011;44037;55.638;37.356;2023-04-24T09:56:42;5.35;;;3.80;;
58238;SDS011;44037;55.638;37.356;2023-04-24T09:59:12;5.25;;;4.43;;
58238;SDS011;44037;55.638;37.356;2023-04-24T10:01:40;7.63;;;4.32;;
58238;SDS011;44037;55.638;37.356;2023-04-24T10:04:16;6.55;;;3.95;;
58238;SDS011;44037;55.638;37.356;2023-04-24T10:06:45;7.85;;;5.40;;
58238;SDS011;44037;55.638;37.356;2023-04-24T10:09:14;6.88;;;4.80;;
58238;SDS011;44037;55.638;37.356;2023-04-24T10:11:41;7.68;;;4.53;;
58238;SDS011;44037;55.638;37.356;2023-04-24T10:14:14;8.25;;;4.43;;
58238;SDS011;44037;55.638;37.356;2023-04-24T10:16:42;5.25;;;4.05;;
58238;SDS011;44037;55.638;37.356;2023-04-24T10:19:12;5.43;;;4.28;;
58238;SDS011;44037;55.638;37.356;2023-04-24T10:21:40;4.70;;;4.10;;
58238;SDS011;44037;55.638;37.356;2023-04-24T10:24:12;6.07;;;4.75;;
58238;SDS011;44037;55.638;37.356;2023-04-24T10:26:40;7.53;;;3.90;;
58238;SDS011;44037;55.638;37.356;2023-04-24T10:29:08;6.28;;;4.05;;
58238;SDS011;44037;55.638;37.356;2023-04-24T10:31:39;5.68;;;3.65;;
58238;SDS011;44037;55.638;37.356;2023-04-24T10:34:09;8.07;;;4.43;;
58238;SDS011;44037;55.638;37.356;2023-04-24T10:36:38;6.13;;;3.90;;
58238;SDS011;44037;55.638;37.356;2023-04-24T10:39:08;8.23;;;6.28;;
58238;SDS011;44037;55.638;37.356;2023-04-24T10:41:38;15.35;;;5.40;;
58238;SDS011;44037;55.638;37.356;2023-04-24T10:44:05;7.20;;;4.03;;
58238;SDS011;44037;55.638;37.356;2023-04-24T10:46:33;6.97;;;4.93;;
58238;SDS011;44037;55.638;37.356;2023-04-24T10:49:04;5.00;;;4.20;;
58238;SDS011;44037;55.638;37.356;2023-04-24T10:51:47;5.05;;;4.18;;
58238;SDS011;44037;55.638;37.356;2023-04-24T10:54:22;5.70;;;4.38;;
58238;SDS011;44037;55.638;37.356;2023-04-24T10:56:50;5.68;;;4.28;;
58238;SDS011;44037;55.638;37.356;2023-04-24T10:59:24;7.30;;;4.45;;
58238;SDS011;44037;55.638;37.356;2023-04-24T11:01:52;8.50;;;5.03;;
58238;SDS011;44037;55.638;37.356;2023-04-24T11:04:30;4.90;;;4.07;;
58238;SDS011;44037;55.638;37.356;2023-04-24T11:06:58;9.55;;;5.15;;
58238;SDS011;44037;55.638;37.356;2023-04-24T11:09:26;5.40;;;4.50;;
58238;SDS011;44037;55.638;37.356;2023-04-24T11:12:02;5.47;;;4.25;;
58238;SDS011;44037;55.638;37.356;2023-04-24T11:17:34;5.53;;;3.70;;
58238;SDS011;44037;55.638;37.356;2023-04-24T11:20:05;5.50;;;3.97;;
58238;SDS011;44037;55.638;37.356;2023-04-24T11:22:35;6.85;;;4.20;;
58238;SDS011;44037;55.638;37.356;2023-04-24T11:25:05;9.00;;;6.88;;
58238;SDS011;44037;55.638;37.356;2023-04-24T11:27:38;6.88;;;4.32;;
58238;SDS011;44037;55.638;37.356;2023-04-24T11:30:07;5.53;;;4.00;;
58238;SDS011;44037;55.638;37.356;2023-04-24T11:32:37;6.38;;;4.78;;
58238;SDS011;44037;55.638;37.356;2023-04-24T11:35:07;4.57;;;3.70;;
58238;SDS011;44037;55.638;37.356;2023-04-24T11:37:41;8.88;;;4.28;;
58238;SDS011;44037;55.638;37.356;2023-04-24T11:40:11;5.38;;;3.97;;
58238;SDS011;44037;55.638;37.356;2023-04-24T11:42:41;7.95;;;5.93;;
58238;SDS011;44037;55.638;37.356;2023-04-24T11:45:10;6.97;;;4.35;;
58238;SDS011;44037;55.638;37.356;2023-04-24T11:47:39;7.13;;;4.50;;
58238;SDS011;44037;55.638;37.356;2023-04-24T11:50:09;6.03;;;4.65;;
58238;SDS011;44037;55.638;37.356;2023-04-24T11:52:38;6.25;;;3.95;;
58238;SDS011;44037;55.638;37.356;2023-04-24T11:55:06;8.45;;;4.35;;
58238;SDS011;44037;55.638;37.356;2023-04-24T11:57:35;7.32;;;4.78;;
58238;SDS011;44037;55.638;37.356;2023-04-24T12:02:31;5.95;;;3.97;;
58238;SDS011;44037;55.638;37.356;2023-04-24T12:04:58;5.97;;;3.83;;
58238;SDS011;44037;55.638;37.356;2023-04-24T12:07:27;8.07;;;4.32;;
58238;SDS011;44037;55.638;37.356;2023-04-24T12:09:56;7.85;;;4.68;;
58238;SDS011;44037;55.638;37.356;2023-04-24T12:12:25;5.57;;;4.28;;
58238;SDS011;44037;55.638;37.356;2023-04-24T12:14:53;8.27;;;4.03;;
58238;SDS011;44037;55.638;37.356;2023-04-24T12:17:26;5.13;;;4.30;;
58238;SDS011;44037;55.638;37.356;2023-04-24T12:19:56;5.75;;;4.25;;
58238;SDS011;44037;55.638;37.356;2023-04-24T12:22:26;4.10;;;3.58;;
58238;SDS011;44037;55.638;37.356;2023-04-24T12:24:57;5.40;;;3.65;;
58238;SDS011;44037;55.638;37.356;2023-04-24T12:27:26;6.47;;;4.57;;
58238;SDS011;44037;55.638;37.356;2023-04-24T12:29:53;7.75;;;3.85;;
58238;SDS011;44037;55.638;37.356;2023-04-24T12:32:22;6.43;;;4.22;;
58238;SDS011;44037;55.638;37.356;2023-04-24T12:34:50;6.63;;;3.53;;
58238;SDS011;44037;55.638;37.356;2023-04-24T12:37:18;5.63;;;3.83;;
58238;SDS011;44037;55.638;37.356;2023-04-24T12:39:59;5.55;;;3.80;;
58238;SDS011;44037;55.638;37.356;2023-04-24T12:42:30;5.60;;;3.95;;
58238;SDS011;44037;55.638;37.356;2023-04-24T12:44:57;13.88;;;8.30;;
58238;SDS011;44037;55.638;37.356;2023-04-24T12:47:26;9.25;;;4.82;;
58238;SDS011;44037;55.638;37.356;2023-04-24T12:49:54;9.02;;;4.28;;
58238;SDS011;44037;55.638;37.356;2023-04-24T12:52:21;10.77;;;4.72;;
58238;SDS011;44037;55.638;37.356;2023-04-24T12:54:52;6.60;;;4.03;;
58238;SDS011;44037;55.638;37.356;2023-04-24T12:57:21;6.20;;;3.95;;
58238;SDS011;44037;55.638;37.356;2023-04-24T12:59:49;5.88;;;3.90;;
58238;SDS011;44037;55.638;37.356;2023-04-24T13:02:16;7.90;;;4.25;;
58238;SDS011;44037;55.638;37.356;2023-04-24T13:04:44;6.00;;;3.67;;
58238;SDS011;44037;55.638;37.356;2023-04-24T13:07:12;7.70;;;3.63;;
58238;SDS011;44037;55.638;37.356;2023-04-24T13:09:40;4.18;;;3.70;;
58238;SDS011;44037;55.638;37.356;2023-04-24T13:12:08;9.45;;;4.97;;
58238;SDS011;44037;55.638;37.356;2023-04-24T13:14:37;7.55;;;3.75;;
58238;SDS011;44037;55.638;37.356;2023-04-24T13:17:04;6.18;;;3.22;;
58238;SDS011;44037;55.638;37.356;2023-04-24T13:19:35;5.88;;;4.25;;
58238;SDS011;44037;55.638;37.356;2023-04-24T13:22:03;10.38;;;6.95;;
58238;SDS011;44037;55.638;37.356;2023-04-24T13:24:31;5.93;;;4.05;;
58238;SDS011;44037;55.638;37.356;2023-04-24T13:26:58;5.68;;;3.88;;
58238;SDS011;44037;55.638;37.356;2023-04-24T13:29:26;7.32;;;3.90;;
58238;SDS011;44037;55.638;37.356;2023-04-24T13:31:54;4.28;;;3.55;;
58238;SDS011;44037;55.638;37.356;2023-04-24T13:34:22;5.38;;;3.50;;
58238;SDS011;44037;55.638;37.356;2023-04-24T13:36:49;6.15;;;3.90;;
58238;SDS011;44037;55.638;37.356;2023-04-24T13:39:17;5.25;;;3.80;;
58238;SDS011;44037;55.638;37.356;2023-04-24T13:41:45;10.63;;;5.47;;
58238;SDS011;44037;55.638;37.356;2023-04-24T13:44:14;6.97;;;4.28;;
58238;SDS011;44037;55.638;37.356;2023-04-24T13:46:41;5.28;;;3.80;;
58238;SDS011;44037;55.638;37.356;2023-04-24T13:49:12;6.05;;;3.67;;
58238;SDS011;44037;55.638;37.356;2023-04-24T13:51:40;8.57;;;3.83;;
58238;SDS011;44037;55.638;37.356;2023-04-24T13:54:08;7.10;;;4.10;;
58238;SDS011;44037;55.638;37.356;2023-04-24T13:56:36;4.75;;;3.38;;
58238;SDS011;44037;55.638;37.356;2023-04-24T13:59:03;5.00;;;3.75;;
58238;SDS011;44037;55.638;37.356;2023-04-24T14:01:31;7.15;;;4.35;;
58238;SDS011;44037;55.638;37.356;2023-04-24T14:03:58;6.20;;;4.03;;
58238;SDS011;44037;55.638;37.356;2023-04-24T14:06:27;8.55;;;5.07;;
58238;SDS011;44037;55.638;37.356;2023-04-24T14:08:54;6.70;;;4.18;;
58238;SDS011;44037;55.638;37.356;2023-04-24T14:11:21;7.28;;;4.53;;
58238;SDS011;44037;55.638;37.356;2023-04-24T14:13:48;6.20;;;4.13;;
58238;SDS011;44037;55.638;37.356;2023-04-24T14:16:16;16.95;;;11.75;;
58238;SDS011;44037;55.638;37.356;2023-04-24T14:18:44;10.98;;;4.10;;
58238;SDS011;44037;55.638;37.356;2023-04-24T14:21:11;5.78;;;4.10;;
58238;SDS011;44037;55.638;37.356;2023-04-24T14:23:39;5.68;;;4.07;;
58238;SDS011;44037;55.638;37.356;2023-04-24T14:26:06;6.32;;;4.28;;
58238;SDS011;44037;55.638;37.356;2023-04-24T14:28:34;6.10;;;3.72;;
58238;SDS011;44037;55.638;37.356;2023-04-24T14:31:01;4.25;;;3.38;;
58238;SDS011;44037;55.638;37.356;2023-04-24T14:33:28;4.00;;;3.50;;
58238;SDS011;44037;55.638;37.356;2023-04-24T14:35:55;6.70;;;5.03;;
58238;SDS011;44037;55.638;37.356;2023-04-24T14:38:23;8.55;;;4.05;;